Italic G — IBYH — position and weather

sailwx.info

Track history (hours):
 
Tides and Currents Weather Stations Pressure Air Temp Water Temp Dewpoint Dewpoint Depression Visibility Wind Speed Wind Dir Waves Ship Positions

Italic G

Last reported at 2018-Apr-24 00:26 UTC. Time now 2018-Apr-26 13:35 UTC.
Position S 39°08' E 145°25'.

Length 229 m; draft 15.2 m.

Type: Cargo ship. MMSI: 247282300.

Date/timePositionNaut miles runAvg speedWind from/ knotsBaromVisibWave heightAir tempDewpointWater temp
2018-Apr-24 00:26S 39°08' E 145°25'511.2
2018-Apr-24 00:00S 39°09' E 145°31'611.1
2018-Apr-23 23:27S 39°09' E 145°38'511.0
2018-Apr-23 23:00S 39°10' E 145°45'511.1
2018-Apr-23 22:30S 39°10' E 145°52'611.2
2018-Apr-23 22:01S 39°10' E 145°59'611.3
2018-Apr-23 21:31S 39°11' E 146°06'611.2
2018-Apr-23 21:01S 39°11' E 146°14'611.2
2018-Apr-23 20:31S 39°11' E 146°21'611.1
2018-Apr-23 20:00S 39°10' E 146°28'611.5
2018-Apr-23 19:31S 39°08' E 146°35'611.6
2018-Apr-23 19:01S 39°06' E 146°42'611.8
2018-Apr-23 18:30S 39°04' E 146°49'612.1
2018-Apr-23 18:00S 39°02' E 146°56'712.1
2018-Apr-23 17:26S 39°00' E 147°05'512.3
2018-Apr-23 17:01S 38°58' E 147°11'612.2
2018-Apr-23 16:30S 38°56' E 147°19'612.3
2018-Apr-23 16:00S 38°54' E 147°26'612.2
2018-Apr-23 15:30S 38°52' E 147°33'611.9
2018-Apr-23 15:00S 38°50' E 147°41'611.6
2018-Apr-23 14:30S 38°48' E 147°48'611.4
2018-Apr-23 14:00S 38°46' E 147°55'611.2
2018-Apr-23 13:31S 38°44' E 148°01'510.7
2018-Apr-23 13:00S 38°43' E 148°08'510.4
2018-Apr-23 12:30S 38°41' E 148°14'510.6
2018-Apr-23 12:00S 38°38' E 148°20'811.3
2018-Apr-23 11:21S 38°33' E 148°27'411.1
2018-Apr-23 11:01S 38°31' E 148°31'611.2
2018-Apr-23 10:31S 38°28' E 148°37'612.0
2018-Apr-23 09:59S 38°24' E 148°43'711.8
2018-Apr-23 09:25S 38°20' E 148°50'511.5
2018-Apr-23 09:01S 38°17' E 148°55'611.3
2018-Apr-23 08:29S 38°14' E 149°01'611.4
2018-Apr-23 07:58S 38°10' E 149°07'611.5
2018-Apr-23 07:28S 38°07' E 149°13'611.7
2018-Apr-23 06:58S 38°03' E 149°19'611.7
2018-Apr-23 06:26S 37°59' E 149°25'511.7
2018-Apr-23 06:00S 37°56' E 149°30'711.5
2018-Apr-23 05:21S 37°52' E 149°38'611.1
2018-Apr-23 04:46S 37°48' E 149°45'31010.9
2018-Apr-22 00:25S 33°09' E 152°29'1112.5
2018-Apr-21 23:31S 32°58' E 152°34'1813.4
2018-Apr-21 22:11S 32°42' E 152°42'213.8
2018-Apr-21 22:00S 32°40' E 152°44'25312.9
2018-Apr-21 02:27S 28°33' E 153°49'613.0
2018-Apr-21 02:00S 28°28' E 153°50'612.8
2018-Apr-21 01:30S 28°21' E 153°51'612.8
2018-Apr-21 01:00S 28°15' E 153°51'612.6
2018-Apr-21 00:30S 28°09' E 153°50'612.3
2018-Apr-20 23:59S 28°02' E 153°50'612.0
2018-Apr-20 23:27S 27°56' E 153°50'512.0
2018-Apr-20 23:00S 27°50' E 153°50'612.5
2018-Apr-20 22:30S 27°44' E 153°49'  
Track history (hours):
 
Tides and Currents Weather Stations Pressure Air Temp Water Temp Dewpoint Dewpoint Depression Visibility Wind Speed Wind Dir Waves Ship Positions

Italic G

Last reported at 2018-Apr-24 00:26 UTC. Time now 2018-Apr-26 13:35 UTC.
Position S 39°08' E 145°25'.

Length 229 m; draft 15.2 m.

Type: Cargo ship. MMSI: 247282300.

Date/timePositionNaut miles runAvg speedWind from/ knotsBaromVisibWave heightAir tempDewpointWater temp
2018-Apr-24 00:26S 39°08' E 145°25'511.2
2018-Apr-24 00:00S 39°09' E 145°31'611.1
2018-Apr-23 23:27S 39°09' E 145°38'511.0
2018-Apr-23 23:00S 39°10' E 145°45'511.1
2018-Apr-23 22:30S 39°10' E 145°52'611.2
2018-Apr-23 22:01S 39°10' E 145°59'611.3
2018-Apr-23 21:31S 39°11' E 146°06'611.2
2018-Apr-23 21:01S 39°11' E 146°14'611.2
2018-Apr-23 20:31S 39°11' E 146°21'611.1
2018-Apr-23 20:00S 39°10' E 146°28'611.5
2018-Apr-23 19:31S 39°08' E 146°35'611.6
2018-Apr-23 19:01S 39°06' E 146°42'611.8
2018-Apr-23 18:30S 39°04' E 146°49'612.1
2018-Apr-23 18:00S 39°02' E 146°56'712.1
2018-Apr-23 17:26S 39°00' E 147°05'512.3
2018-Apr-23 17:01S 38°58' E 147°11'612.2
2018-Apr-23 16:30S 38°56' E 147°19'612.3
2018-Apr-23 16:00S 38°54' E 147°26'612.2
2018-Apr-23 15:30S 38°52' E 147°33'611.9
2018-Apr-23 15:00S 38°50' E 147°41'611.6
2018-Apr-23 14:30S 38°48' E 147°48'611.4
2018-Apr-23 14:00S 38°46' E 147°55'611.2
2018-Apr-23 13:31S 38°44' E 148°01'510.7
2018-Apr-23 13:00S 38°43' E 148°08'510.4
2018-Apr-23 12:30S 38°41' E 148°14'510.6
2018-Apr-23 12:00S 38°38' E 148°20'811.3
2018-Apr-23 11:21S 38°33' E 148°27'411.1
2018-Apr-23 11:01S 38°31' E 148°31'611.2
2018-Apr-23 10:31S 38°28' E 148°37'612.0
2018-Apr-23 09:59S 38°24' E 148°43'711.8
2018-Apr-23 09:25S 38°20' E 148°50'511.5
2018-Apr-23 09:01S 38°17' E 148°55'611.3
2018-Apr-23 08:29S 38°14' E 149°01'611.4
2018-Apr-23 07:58S 38°10' E 149°07'611.5
2018-Apr-23 07:28S 38°07' E 149°13'611.7
2018-Apr-23 06:58S 38°03' E 149°19'611.7
2018-Apr-23 06:26S 37°59' E 149°25'511.7
2018-Apr-23 06:00S 37°56' E 149°30'711.5
2018-Apr-23 05:21S 37°52' E 149°38'611.1
2018-Apr-23 04:46S 37°48' E 149°45'31010.9
2018-Apr-22 00:25S 33°09' E 152°29'1112.5
2018-Apr-21 23:31S 32°58' E 152°34'1813.4
2018-Apr-21 22:11S 32°42' E 152°42'213.8
2018-Apr-21 22:00S 32°40' E 152°44'25312.9
2018-Apr-21 02:27S 28°33' E 153°49'613.0
2018-Apr-21 02:00S 28°28' E 153°50'612.8
2018-Apr-21 01:30S 28°21' E 153°51'612.8
2018-Apr-21 01:00S 28°15' E 153°51'612.6
2018-Apr-21 00:30S 28°09' E 153°50'612.3
2018-Apr-20 23:59S 28°02' E 153°50'612.0
2018-Apr-20 23:27S 27°56' E 153°50'512.0
2018-Apr-20 23:00S 27°50' E 153°50'612.5
2018-Apr-20 22:30S 27°44' E 153°49'  

Dump ship's entire track history